sensor_id;sensor_type;location;lat;lon;timestamp;temperature;humidity
49379;DHT22;35254;47.990;-1.608;2023-02-12T00:02:08;15.80;53.30
49379;DHT22;35254;47.990;-1.608;2023-02-12T00:04:34;15.70;53.10
49379;DHT22;35254;47.990;-1.608;2023-02-12T00:07:00;15.70;53.10
49379;DHT22;35254;47.990;-1.608;2023-02-12T00:09:26;15.70;52.90
49379;DHT22;35254;47.990;-1.608;2023-02-12T00:11:51;15.70;52.90
49379;DHT22;35254;47.990;-1.608;2023-02-12T00:14:17;15.70;52.90
49379;DHT22;35254;47.990;-1.608;2023-02-12T00:16:43;15.70;52.80
49379;DHT22;35254;47.990;-1.608;2023-02-12T00:19:08;15.70;52.80
49379;DHT22;35254;47.990;-1.608;2023-02-12T00:21:34;15.70;52.80
49379;DHT22;35254;47.990;-1.608;2023-02-12T00:24:01;15.70;52.80
49379;DHT22;35254;47.990;-1.608;2023-02-12T00:26:26;15.70;52.60
49379;DHT22;35254;47.990;-1.608;2023-02-12T00:28:52;15.70;52.90
49379;DHT22;35254;47.990;-1.608;2023-02-12T00:31:22;15.70;52.80
49379;DHT22;35254;47.990;-1.608;2023-02-12T00:33:48;15.70;52.80
49379;DHT22;35254;47.990;-1.608;2023-02-12T00:36:19;15.70;52.70
49379;DHT22;35254;47.990;-1.608;2023-02-12T00:38:46;15.60;52.60
49379;DHT22;35254;47.990;-1.608;2023-02-12T00:41:12;15.70;52.70
49379;DHT22;35254;47.990;-1.608;2023-02-12T00:43:38;15.70;52.70
49379;DHT22;35254;47.990;-1.608;2023-02-12T00:46:03;15.70;52.70
49379;DHT22;35254;47.990;-1.608;2023-02-12T00:48:30;15.70;53.00
49379;DHT22;35254;47.990;-1.608;2023-02-12T00:50:55;15.70;53.30
49379;DHT22;35254;47.990;-1.608;2023-02-12T00:53:21;15.70;53.50
49379;DHT22;35254;47.990;-1.608;2023-02-12T00:55:47;15.60;53.50
49379;DHT22;35254;47.990;-1.608;2023-02-12T00:58:12;15.60;53.70
49379;DHT22;35254;47.990;-1.608;2023-02-12T01:00:38;15.60;53.50
49379;DHT22;35254;47.990;-1.608;2023-02-12T01:03:04;15.60;53.40
49379;DHT22;35254;47.990;-1.608;2023-02-12T01:05:30;15.60;53.40
49379;DHT22;35254;47.990;-1.608;2023-02-12T01:07:56;15.60;53.50
49379;DHT22;35254;47.990;-1.608;2023-02-12T01:10:22;15.60;53.60
49379;DHT22;35254;47.990;-1.608;2023-02-12T01:12:48;15.60;53.80
49379;DHT22;35254;47.990;-1.608;2023-02-12T01:15:14;15.60;54.00
49379;DHT22;35254;47.990;-1.608;2023-02-12T01:17:40;15.60;53.80
49379;DHT22;35254;47.990;-1.608;2023-02-12T01:20:07;15.60;53.80
49379;DHT22;35254;47.990;-1.608;2023-02-12T01:22:34;15.60;54.10
49379;DHT22;35254;47.990;-1.608;2023-02-12T01:25:00;15.50;54.00
49379;DHT22;35254;47.990;-1.608;2023-02-12T01:27:25;15.50;54.00
49379;DHT22;35254;47.990;-1.608;2023-02-12T01:29:51;15.50;53.90
49379;DHT22;35254;47.990;-1.608;2023-02-12T01:32:17;15.50;53.90
49379;DHT22;35254;47.990;-1.608;2023-02-12T01:34:42;15.50;54.00
49379;DHT22;35254;47.990;-1.608;2023-02-12T01:37:08;15.50;53.70
49379;DHT22;35254;47.990;-1.608;2023-02-12T01:39:34;15.50;53.80
49379;DHT22;35254;47.990;-1.608;2023-02-12T01:42:00;15.50;53.80
49379;DHT22;35254;47.990;-1.608;2023-02-12T01:44:29;15.50;54.00
49379;DHT22;35254;47.990;-1.608;2023-02-12T01:47:00;15.40;53.90
49379;DHT22;35254;47.990;-1.608;2023-02-12T01:52:01;15.40;53.90
49379;DHT22;35254;47.990;-1.608;2023-02-12T01:54:27;15.40;53.70
49379;DHT22;35254;47.990;-1.608;2023-02-12T01:56:54;15.40;53.50
49379;DHT22;35254;47.990;-1.608;2023-02-12T01:59:21;15.40;53.50
49379;DHT22;35254;47.990;-1.608;2023-02-12T02:01:46;15.30;53.40
49379;DHT22;35254;47.990;-1.608;2023-02-12T02:04:15;15.30;53.70
49379;DHT22;35254;47.990;-1.608;2023-02-12T02:06:58;15.30;53.40
49379;DHT22;35254;47.990;-1.608;2023-02-12T02:09:24;15.30;53.50
49379;DHT22;35254;47.990;-1.608;2023-02-12T02:11:50;15.30;53.50
49379;DHT22;35254;47.990;-1.608;2023-02-12T02:14:36;15.30;53.60
49379;DHT22;35254;47.990;-1.608;2023-02-12T02:17:33;15.30;53.50
49379;DHT22;35254;47.990;-1.608;2023-02-12T02:28:55;15.20;53.30
49379;DHT22;35254;47.990;-1.608;2023-02-12T02:34:28;15.20;53.50
49379;DHT22;35254;47.990;-1.608;2023-02-12T02:37:03;15.20;53.30
49379;DHT22;35254;47.990;-1.608;2023-02-12T02:39:42;15.20;53.30
49379;DHT22;35254;47.990;-1.608;2023-02-12T02:42:52;15.10;53.30
49379;DHT22;35254;47.990;-1.608;2023-02-12T02:48:02;15.20;53.20
49379;DHT22;35254;47.990;-1.608;2023-02-12T02:50:30;15.10;53.30
49379;DHT22;35254;47.990;-1.608;2023-02-12T02:55:56;15.10;53.30
49379;DHT22;35254;47.990;-1.608;2023-02-12T02:58:27;15.10;53.20
49379;DHT22;35254;47.990;-1.608;2023-02-12T03:01:08;15.00;53.10
49379;DHT22;35254;47.990;-1.608;2023-02-12T03:03:46;15.00;53.00
49379;DHT22;35254;47.990;-1.608;2023-02-12T03:06:19;15.10;53.00
49379;DHT22;35254;47.990;-1.608;2023-02-12T03:08:59;15.00;53.00
49379;DHT22;35254;47.990;-1.608;2023-02-12T03:11:31;15.00;52.90
49379;DHT22;35254;47.990;-1.608;2023-02-12T03:19:15;14.90;52.60
49379;DHT22;35254;47.990;-1.608;2023-02-12T03:22:03;15.00;52.40
49379;DHT22;35254;47.990;-1.608;2023-02-12T03:24:49;14.90;52.50
49379;DHT22;35254;47.990;-1.608;2023-02-12T03:29:44;14.90;52.40
49379;DHT22;35254;47.990;-1.608;2023-02-12T03:32:32;14.90;52.30
49379;DHT22;35254;47.990;-1.608;2023-02-12T03:35:19;14.90;52.30
49379;DHT22;35254;47.990;-1.608;2023-02-12T03:40:23;14.80;52.30
49379;DHT22;35254;47.990;-1.608;2023-02-12T03:51:01;14.80;52.30
49379;DHT22;35254;47.990;-1.608;2023-02-12T03:53:28;14.80;52.10
49379;DHT22;35254;47.990;-1.608;2023-02-12T03:56:03;14.80;52.20
49379;DHT22;35254;47.990;-1.608;2023-02-12T03:58:31;14.70;52.10
49379;DHT22;35254;47.990;-1.608;2023-02-12T04:00:59;14.70;52.10
49379;DHT22;35254;47.990;-1.608;2023-02-12T04:03:25;14.70;52.10
49379;DHT22;35254;47.990;-1.608;2023-02-12T04:05:51;14.70;52.40
49379;DHT22;35254;47.990;-1.608;2023-02-12T04:08:17;14.70;52.20
49379;DHT22;35254;47.990;-1.608;2023-02-12T04:13:42;14.60;52.20
49379;DHT22;35254;47.990;-1.608;2023-02-12T04:16:32;14.70;52.40
49379;DHT22;35254;47.990;-1.608;2023-02-12T04:18:59;14.70;52.30
49379;DHT22;35254;47.990;-1.608;2023-02-12T04:24:39;14.70;52.40
49379;DHT22;35254;47.990;-1.608;2023-02-12T04:30:01;14.60;52.50
49379;DHT22;35254;47.990;-1.608;2023-02-12T04:32:50;14.60;52.50
49379;DHT22;35254;47.990;-1.608;2023-02-12T04:35:48;14.60;52.60
49379;DHT22;35254;47.990;-1.608;2023-02-12T04:38:21;14.60;52.60
49379;DHT22;35254;47.990;-1.608;2023-02-12T04:40:48;14.60;52.70
49379;DHT22;35254;47.990;-1.608;2023-02-12T04:43:25;14.60;52.70
49379;DHT22;35254;47.990;-1.608;2023-02-12T04:45:51;14.60;52.80
49379;DHT22;35254;47.990;-1.608;2023-02-12T04:48:17;14.60;52.90
49379;DHT22;35254;47.990;-1.608;2023-02-12T04:50:42;14.60;52.80
49379;DHT22;35254;47.990;-1.608;2023-02-12T04:53:10;14.60;53.00
49379;DHT22;35254;47.990;-1.608;2023-02-12T04:55:36;14.60;52.80
49379;DHT22;35254;47.990;-1.608;2023-02-12T04:58:02;14.50;52.80
49379;DHT22;35254;47.990;-1.608;2023-02-12T05:00:27;14.50;52.80
49379;DHT22;35254;47.990;-1.608;2023-02-12T05:02:53;14.50;52.70
49379;DHT22;35254;47.990;-1.608;2023-02-12T05:05:19;14.50;52.60
49379;DHT22;35254;47.990;-1.608;2023-02-12T05:07:45;14.50;52.60
49379;DHT22;35254;47.990;-1.608;2023-02-12T05:10:10;14.50;52.60
49379;DHT22;35254;47.990;-1.608;2023-02-12T05:12:36;14.50;52.70
49379;DHT22;35254;47.990;-1.608;2023-02-12T05:15:02;14.50;52.70
49379;DHT22;35254;47.990;-1.608;2023-02-12T05:17:27;14.40;52.70
49379;DHT22;35254;47.990;-1.608;2023-02-12T05:19:53;14.40;52.80
49379;DHT22;35254;47.990;-1.608;2023-02-12T05:22:19;14.40;52.80
49379;DHT22;35254;47.990;-1.608;2023-02-12T05:24:44;14.40;52.80
49379;DHT22;35254;47.990;-1.608;2023-02-12T05:27:10;14.40;52.70
49379;DHT22;35254;47.990;-1.608;2023-02-12T05:29:36;14.40;52.80
49379;DHT22;35254;47.990;-1.608;2023-02-12T05:32:01;14.40;52.90
49379;DHT22;35254;47.990;-1.608;2023-02-12T05:34:27;14.40;52.90
49379;DHT22;35254;47.990;-1.608;2023-02-12T05:36:53;14.40;52.80
49379;DHT22;35254;47.990;-1.608;2023-02-12T05:39:18;14.30;52.90
49379;DHT22;35254;47.990;-1.608;2023-02-12T05:41:44;14.30;52.90
49379;DHT22;35254;47.990;-1.608;2023-02-12T05:44:10;14.30;53.00
49379;DHT22;35254;47.990;-1.608;2023-02-12T05:46:36;14.30;53.00
49379;DHT22;35254;47.990;-1.608;2023-02-12T05:49:02;14.30;53.00
49379;DHT22;35254;47.990;-1.608;2023-02-12T05:51:28;14.30;53.00
49379;DHT22;35254;47.990;-1.608;2023-02-12T05:53:59;14.30;53.10
49379;DHT22;35254;47.990;-1.608;2023-02-12T05:56:28;14.30;53.20
49379;DHT22;35254;47.990;-1.608;2023-02-12T05:59:05;14.20;53.10
49379;DHT22;35254;47.990;-1.608;2023-02-12T06:01:39;14.30;53.20
49379;DHT22;35254;47.990;-1.608;2023-02-12T06:04:19;14.20;53.20
49379;DHT22;35254;47.990;-1.608;2023-02-12T06:06:45;14.30;53.10
49379;DHT22;35254;47.990;-1.608;2023-02-12T06:09:12;14.20;53.10
49379;DHT22;35254;47.990;-1.608;2023-02-12T06:11:38;14.20;53.10
49379;DHT22;35254;47.990;-1.608;2023-02-12T06:14:06;14.20;53.10
49379;DHT22;35254;47.990;-1.608;2023-02-12T06:16:32;14.20;53.10
49379;DHT22;35254;47.990;-1.608;2023-02-12T06:19:01;14.20;53.10
49379;DHT22;35254;47.990;-1.608;2023-02-12T06:21:27;14.20;53.00
49379;DHT22;35254;47.990;-1.608;2023-02-12T06:23:54;14.20;53.20
49379;DHT22;35254;47.990;-1.608;2023-02-12T06:26:20;14.20;53.10
49379;DHT22;35254;47.990;-1.608;2023-02-12T06:28:46;14.20;53.10
49379;DHT22;35254;47.990;-1.608;2023-02-12T06:31:29;14.20;53.10
49379;DHT22;35254;47.990;-1.608;2023-02-12T06:33:57;14.20;53.30
49379;DHT22;35254;47.990;-1.608;2023-02-12T06:36:24;14.20;53.20
49379;DHT22;35254;47.990;-1.608;2023-02-12T06:38:50;14.10;53.10
49379;DHT22;35254;47.990;-1.608;2023-02-12T06:41:16;14.20;53.20
49379;DHT22;35254;47.990;-1.608;2023-02-12T06:43:42;14.10;53.30
49379;DHT22;35254;47.990;-1.608;2023-02-12T06:46:08;14.10;53.30
49379;DHT22;35254;47.990;-1.608;2023-02-12T06:48:34;14.10;53.50
49379;DHT22;35254;47.990;-1.608;2023-02-12T06:51:15;14.10;53.40
49379;DHT22;35254;47.990;-1.608;2023-02-12T06:53:42;14.10;53.50
49379;DHT22;35254;47.990;-1.608;2023-02-12T06:56:09;14.20;53.30
49379;DHT22;35254;47.990;-1.608;2023-02-12T06:58:36;14.20;53.20
49379;DHT22;35254;47.990;-1.608;2023-02-12T07:01:17;14.20;53.40
49379;DHT22;35254;47.990;-1.608;2023-02-12T07:03:54;14.10;53.40
49379;DHT22;35254;47.990;-1.608;2023-02-12T07:06:21;14.20;53.40
49379;DHT22;35254;47.990;-1.608;2023-02-12T07:08:47;14.10;53.40
49379;DHT22;35254;47.990;-1.608;2023-02-12T07:11:13;14.10;53.70
49379;DHT22;35254;47.990;-1.608;2023-02-12T07:13:40;14.10;53.70
49379;DHT22;35254;47.990;-1.608;2023-02-12T07:16:10;14.10;53.70
49379;DHT22;35254;47.990;-1.608;2023-02-12T07:18:36;14.10;53.70
49379;DHT22;35254;47.990;-1.608;2023-02-12T07:21:03;14.10;53.70
49379;DHT22;35254;47.990;-1.608;2023-02-12T07:23:30;14.10;53.60
49379;DHT22;35254;47.990;-1.608;2023-02-12T07:25:57;14.10;53.60
49379;DHT22;35254;47.990;-1.608;2023-02-12T07:28:23;14.10;53.80
49379;DHT22;35254;47.990;-1.608;2023-02-12T07:30:49;14.10;54.00
49379;DHT22;35254;47.990;-1.608;2023-02-12T07:33:15;14.10;53.90
49379;DHT22;35254;47.990;-1.608;2023-02-12T07:35:40;14.10;53.90
49379;DHT22;35254;47.990;-1.608;2023-02-12T07:38:06;14.10;53.90
49379;DHT22;35254;47.990;-1.608;2023-02-12T07:40:31;14.10;54.00
49379;DHT22;35254;47.990;-1.608;2023-02-12T07:42:57;14.10;54.10
49379;DHT22;35254;47.990;-1.608;2023-02-12T07:45:23;14.00;54.10
49379;DHT22;35254;47.990;-1.608;2023-02-12T07:47:49;14.10;54.10
49379;DHT22;35254;47.990;-1.608;2023-02-12T07:50:15;14.10;54.10
49379;DHT22;35254;47.990;-1.608;2023-02-12T07:52:40;14.10;54.20
49379;DHT22;35254;47.990;-1.608;2023-02-12T07:55:06;14.10;54.10
49379;DHT22;35254;47.990;-1.608;2023-02-12T07:57:34;14.10;54.30
49379;DHT22;35254;47.990;-1.608;2023-02-12T07:59:59;14.10;54.20
49379;DHT22;35254;47.990;-1.608;2023-02-12T08:02:25;14.10;54.40
49379;DHT22;35254;47.990;-1.608;2023-02-12T08:04:55;14.10;54.30
49379;DHT22;35254;47.990;-1.608;2023-02-12T08:07:21;14.00;54.30
49379;DHT22;35254;47.990;-1.608;2023-02-12T08:09:46;14.00;54.40
49379;DHT22;35254;47.990;-1.608;2023-02-12T08:12:12;14.00;54.50
49379;DHT22;35254;47.990;-1.608;2023-02-12T08:14:37;14.00;54.60
49379;DHT22;35254;47.990;-1.608;2023-02-12T08:17:03;14.00;54.50
49379;DHT22;35254;47.990;-1.608;2023-02-12T08:19:29;14.00;54.60
49379;DHT22;35254;47.990;-1.608;2023-02-12T08:21:55;14.00;54.60
49379;DHT22;35254;47.990;-1.608;2023-02-12T08:24:21;14.00;54.60
49379;DHT22;35254;47.990;-1.608;2023-02-12T08:26:47;14.00;54.50
49379;DHT22;35254;47.990;-1.608;2023-02-12T08:29:15;14.00;54.50
49379;DHT22;35254;47.990;-1.608;2023-02-12T08:31:44;13.90;54.50
49379;DHT22;35254;47.990;-1.608;2023-02-12T08:34:27;13.90;54.60
49379;DHT22;35254;47.990;-1.608;2023-02-12T08:36:54;13.90;54.90
49379;DHT22;35254;47.990;-1.608;2023-02-12T08:39:21;13.90;54.80
49379;DHT22;35254;47.990;-1.608;2023-02-12T08:41:47;13.80;54.90
49379;DHT22;35254;47.990;-1.608;2023-02-12T08:44:14;13.90;54.90
49379;DHT22;35254;47.990;-1.608;2023-02-12T08:46:44;13.90;54.70
49379;DHT22;35254;47.990;-1.608;2023-02-12T08:49:16;13.90;54.80
49379;DHT22;35254;47.990;-1.608;2023-02-12T08:51:44;13.80;55.10
49379;DHT22;35254;47.990;-1.608;2023-02-12T08:54:13;13.80;55.00
49379;DHT22;35254;47.990;-1.608;2023-02-12T08:56:39;13.80;55.00
49379;DHT22;35254;47.990;-1.608;2023-02-12T08:59:06;13.80;55.00
49379;DHT22;35254;47.990;-1.608;2023-02-12T09:01:34;13.80;55.10
49379;DHT22;35254;47.990;-1.608;2023-02-12T09:04:03;13.80;55.20
49379;DHT22;35254;47.990;-1.608;2023-02-12T09:06:31;13.80;55.30
49379;DHT22;35254;47.990;-1.608;2023-02-12T09:08:57;13.90;55.10
49379;DHT22;35254;47.990;-1.608;2023-02-12T09:11:25;13.80;55.40
49379;DHT22;35254;47.990;-1.608;2023-02-12T09:13:56;13.70;55.50
49379;DHT22;35254;47.990;-1.608;2023-02-12T09:16:22;13.70;55.70
49379;DHT22;35254;47.990;-1.608;2023-02-12T09:18:48;13.80;55.60
49379;DHT22;35254;47.990;-1.608;2023-02-12T09:21:14;13.70;55.50
49379;DHT22;35254;47.990;-1.608;2023-02-12T09:23:42;13.70;55.50
49379;DHT22;35254;47.990;-1.608;2023-02-12T09:26:10;13.80;55.40
49379;DHT22;35254;47.990;-1.608;2023-02-12T09:28:36;13.80;55.60
49379;DHT22;35254;47.990;-1.608;2023-02-12T09:31:11;13.70;55.80
49379;DHT22;35254;47.990;-1.608;2023-02-12T09:33:37;13.70;55.80
49379;DHT22;35254;47.990;-1.608;2023-02-12T09:36:06;13.70;55.70
49379;DHT22;35254;47.990;-1.608;2023-02-12T09:38:32;13.70;55.90
49379;DHT22;35254;47.990;-1.608;2023-02-12T09:51:39;13.70;56.00
49379;DHT22;35254;47.990;-1.608;2023-02-12T09:54:17;13.60;56.30
49379;DHT22;35254;47.990;-1.608;2023-02-12T09:56:47;13.70;56.20
49379;DHT22;35254;47.990;-1.608;2023-02-12T09:59:36;13.70;56.20
49379;DHT22;35254;47.990;-1.608;2023-02-12T10:02:14;13.70;56.50
49379;DHT22;35254;47.990;-1.608;2023-02-12T10:04:42;13.70;56.30
49379;DHT22;35254;47.990;-1.608;2023-02-12T10:07:21;13.70;56.40
49379;DHT22;35254;47.990;-1.608;2023-02-12T10:10:11;13.60;56.70
49379;DHT22;35254;47.990;-1.608;2023-02-12T10:23:39;13.60;56.40
49379;DHT22;35254;47.990;-1.608;2023-02-12T10:26:21;13.60;56.60
49379;DHT22;35254;47.990;-1.608;2023-02-12T10:28:51;13.60;56.80
49379;DHT22;35254;47.990;-1.608;2023-02-12T10:31:23;13.60;56.90
49379;DHT22;35254;47.990;-1.608;2023-02-12T10:33:50;13.60;57.00
49379;DHT22;35254;47.990;-1.608;2023-02-12T10:41:44;13.60;56.80
49379;DHT22;35254;47.990;-1.608;2023-02-12T10:44:11;13.60;57.00
49379;DHT22;35254;47.990;-1.608;2023-02-12T10:46:37;13.60;57.20
49379;DHT22;35254;47.990;-1.608;2023-02-12T10:49:03;13.60;57.20
49379;DHT22;35254;47.990;-1.608;2023-02-12T10:51:47;13.60;57.00
49379;DHT22;35254;47.990;-1.608;2023-02-12T10:54:32;13.60;57.10
49379;DHT22;35254;47.990;-1.608;2023-02-12T10:57:06;13.60;57.10
49379;DHT22;35254;47.990;-1.608;2023-02-12T10:59:32;13.60;57.20
49379;DHT22;35254;47.990;-1.608;2023-02-12T11:01:57;13.60;57.10
49379;DHT22;35254;47.990;-1.608;2023-02-12T11:04:28;13.60;57.00
49379;DHT22;35254;47.990;-1.608;2023-02-12T11:07:01;13.60;57.20
49379;DHT22;35254;47.990;-1.608;2023-02-12T11:09:36;13.60;57.30
49379;DHT22;35254;47.990;-1.608;2023-02-12T11:12:38;13.60;57.20
49379;DHT22;35254;47.990;-1.608;2023-02-12T11:15:18;13.60;57.20
49379;DHT22;35254;47.990;-1.608;2023-02-12T11:18:04;13.60;57.30
49379;DHT22;35254;47.990;-1.608;2023-02-12T11:20:38;13.60;57.10
49379;DHT22;35254;47.990;-1.608;2023-02-12T11:23:25;13.60;57.20
49379;DHT22;35254;47.990;-1.608;2023-02-12T11:28:23;13.60;57.20
49379;DHT22;35254;47.990;-1.608;2023-02-12T11:30:53;13.60;57.20
49379;DHT22;35254;47.990;-1.608;2023-02-12T11:33:23;13.60;57.10
49379;DHT22;35254;47.990;-1.608;2023-02-12T11:35:55;13.60;57.20
49379;DHT22;35254;47.990;-1.608;2023-02-12T11:38:27;13.70;57.40
49379;DHT22;35254;47.990;-1.608;2023-02-12T11:40:57;13.70;57.50
49379;DHT22;35254;47.990;-1.608;2023-02-12T11:43:23;13.70;57.40
49379;DHT22;35254;47.990;-1.608;2023-02-12T11:45:50;13.70;57.60
49379;DHT22;35254;47.990;-1.608;2023-02-12T11:50:52;13.60;57.50
49379;DHT22;35254;47.990;-1.608;2023-02-12T11:53:31;13.70;57.20
49379;DHT22;35254;47.990;-1.608;2023-02-12T11:56:00;13.70;57.20
49379;DHT22;35254;47.990;-1.608;2023-02-12T11:58:28;13.70;57.10
49379;DHT22;35254;47.990;-1.608;2023-02-12T12:01:23;13.70;57.10
49379;DHT22;35254;47.990;-1.608;2023-02-12T12:03:59;13.70;57.20
49379;DHT22;35254;47.990;-1.608;2023-02-12T12:06:46;13.70;57.20
49379;DHT22;35254;47.990;-1.608;2023-02-12T12:09:36;13.70;57.50
49379;DHT22;35254;47.990;-1.608;2023-02-12T12:14:43;13.70;57.80
49379;DHT22;35254;47.990;-1.608;2023-02-12T12:17:54;13.70;57.90
49379;DHT22;35254;47.990;-1.608;2023-02-12T12:20:51;13.70;57.90
49379;DHT22;35254;47.990;-1.608;2023-02-12T12:23:23;13.70;58.10
49379;DHT22;35254;47.990;-1.608;2023-02-12T12:25:53;13.80;58.10
49379;DHT22;35254;47.990;-1.608;2023-02-12T12:28:39;13.80;58.00
49379;DHT22;35254;47.990;-1.608;2023-02-12T12:31:09;13.80;58.00
49379;DHT22;35254;47.990;-1.608;2023-02-12T12:33:49;13.90;58.10
49379;DHT22;35254;47.990;-1.608;2023-02-12T12:39:25;13.80;58.20
49379;DHT22;35254;47.990;-1.608;2023-02-12T12:47:45;13.90;58.20
49379;DHT22;35254;47.990;-1.608;2023-02-12T12:50:25;13.90;58.20
49379;DHT22;35254;47.990;-1.608;2023-02-12T12:53:04;13.90;58.30
49379;DHT22;35254;47.990;-1.608;2023-02-12T13:00:51;14.00;58.50
49379;DHT22;35254;47.990;-1.608;2023-02-12T13:04:01;13.90;58.30
49379;DHT22;35254;47.990;-1.608;2023-02-12T13:14:43;14.00;58.60
49379;DHT22;35254;47.990;-1.608;2023-02-12T13:22:55;14.00;58.60
49379;DHT22;35254;47.990;-1.608;2023-02-12T13:25:34;14.10;58.50
49379;DHT22;35254;47.990;-1.608;2023-02-12T13:28:04;14.10;58.50
49379;DHT22;35254;47.990;-1.608;2023-02-12T13:30:46;14.10;58.50
49379;DHT22;35254;47.990;-1.608;2023-02-12T13:33:19;14.10;58.50
49379;DHT22;35254;47.990;-1.608;2023-02-12T13:35:49;14.10;58.60
49379;DHT22;35254;47.990;-1.608;2023-02-12T13:38:21;14.10;58.60
49379;DHT22;35254;47.990;-1.608;2023-02-12T13:40:56;14.10;58.50
49379;DHT22;35254;47.990;-1.608;2023-02-12T13:46:10;14.20;58.60
49379;DHT22;35254;47.990;-1.608;2023-02-12T13:56:47;14.10;58.80
49379;DHT22;35254;47.990;-1.608;2023-02-12T14:02:05;14.20;58.80
49379;DHT22;35254;47.990;-1.608;2023-02-12T14:07:17;14.20;58.80
49379;DHT22;35254;47.990;-1.608;2023-02-12T14:14:52;14.30;58.70
49379;DHT22;35254;47.990;-1.608;2023-02-12T14:27:50;14.30;56.80
49379;DHT22;35254;47.990;-1.608;2023-02-12T14:30:31;14.30;56.70
49379;DHT22;35254;47.990;-1.608;2023-02-12T14:35:42;14.30;56.10
49379;DHT22;35254;47.990;-1.608;2023-02-12T14:46:41;14.30;55.70
49379;DHT22;35254;47.990;-1.608;2023-02-12T14:48:59;14.40;55.70
49379;DHT22;35254;47.990;-1.608;2023-02-12T14:51:40;14.40;55.50
49379;DHT22;35254;47.990;-1.608;2023-02-12T14:54:18;14.40;55.50
49379;DHT22;35254;47.990;-1.608;2023-02-12T14:56:47;14.40;55.40
49379;DHT22;35254;47.990;-1.608;2023-02-12T14:59:20;14.40;55.20
49379;DHT22;35254;47.990;-1.608;2023-02-12T15:01:47;14.40;55.20
49379;DHT22;35254;47.990;-1.608;2023-02-12T15:04:29;14.40;55.20
49379;DHT22;35254;47.990;-1.608;2023-02-12T15:07:13;14.40;55.20
49379;DHT22;35254;47.990;-1.608;2023-02-12T15:09:50;14.40;55.10
49379;DHT22;35254;47.990;-1.608;2023-02-12T15:12:19;14.40;55.00
49379;DHT22;35254;47.990;-1.608;2023-02-12T15:15:00;14.40;54.90
49379;DHT22;35254;47.990;-1.608;2023-02-12T15:17:31;14.40;54.70
49379;DHT22;35254;47.990;-1.608;2023-02-12T15:20:12;14.40;54.90
49379;DHT22;35254;47.990;-1.608;2023-02-12T15:22:42;14.50;54.80
49379;DHT22;35254;47.990;-1.608;2023-02-12T15:25:28;14.40;54.90
49379;DHT22;35254;47.990;-1.608;2023-02-12T15:28:17;14.40;54.90
49379;DHT22;35254;47.990;-1.608;2023-02-12T15:30:44;14.40;54.80
49379;DHT22;35254;47.990;-1.608;2023-02-12T15:33:22;14.40;54.80
49379;DHT22;35254;47.990;-1.608;2023-02-12T15:35:48;14.50;54.70
49379;DHT22;35254;47.990;-1.608;2023-02-12T15:38:26;14.50;54.70
49379;DHT22;35254;47.990;-1.608;2023-02-12T15:40:58;14.40;54.60
49379;DHT22;35254;47.990;-1.608;2023-02-12T15:43:30;14.50;54.50
49379;DHT22;35254;47.990;-1.608;2023-02-12T15:46:03;14.40;54.60
49379;DHT22;35254;47.990;-1.608;2023-02-12T15:48:35;14.50;54.50
49379;DHT22;35254;47.990;-1.608;2023-02-12T15:53:51;14.50;54.40
49379;DHT22;35254;47.990;-1.608;2023-02-12T15:56:22;14.50;54.40
49379;DHT22;35254;47.990;-1.608;2023-02-12T16:01:22;14.50;54.40
49379;DHT22;35254;47.990;-1.608;2023-02-12T16:03:57;14.50;54.20
49379;DHT22;35254;47.990;-1.608;2023-02-12T16:06:25;14.50;54.20
49379;DHT22;35254;47.990;-1.608;2023-02-12T16:08:58;14.50;54.70
49379;DHT22;35254;47.990;-1.608;2023-02-12T16:11:26;14.50;55.30
49379;DHT22;35254;47.990;-1.608;2023-02-12T16:14:03;14.40;55.60
49379;DHT22;35254;47.990;-1.608;2023-02-12T16:16:45;14.40;55.90
49379;DHT22;35254;47.990;-1.608;2023-02-12T16:19:28;14.40;56.10
49379;DHT22;35254;47.990;-1.608;2023-02-12T16:22:27;14.50;56.30
49379;DHT22;35254;47.990;-1.608;2023-02-12T16:24:51;14.50;56.30
49379;DHT22;35254;47.990;-1.608;2023-02-12T16:27:20;14.40;56.40
49379;DHT22;35254;47.990;-1.608;2023-02-12T16:29:50;14.50;56.60
49379;DHT22;35254;47.990;-1.608;2023-02-12T16:35:27;14.50;56.70
49379;DHT22;35254;47.990;-1.608;2023-02-12T16:38:36;14.50;56.70
49379;DHT22;35254;47.990;-1.608;2023-02-12T16:43:40;14.50;56.90
49379;DHT22;35254;47.990;-1.608;2023-02-12T16:46:08;14.50;57.00
49379;DHT22;35254;47.990;-1.608;2023-02-12T16:48:38;14.50;56.90
49379;DHT22;35254;47.990;-1.608;2023-02-12T16:51:04;14.50;57.00
49379;DHT22;35254;47.990;-1.608;2023-02-12T16:53:32;14.50;57.00
49379;DHT22;35254;47.990;-1.608;2023-02-12T16:55:59;14.50;57.00
49379;DHT22;35254;47.990;-1.608;2023-02-12T16:58:25;14.50;56.90
49379;DHT22;35254;47.990;-1.608;2023-02-12T17:00:52;14.50;56.90
49379;DHT22;35254;47.990;-1.608;2023-02-12T17:03:19;14.60;56.90
49379;DHT22;35254;47.990;-1.608;2023-02-12T17:05:45;14.60;56.90
49379;DHT22;35254;47.990;-1.608;2023-02-12T17:08:16;14.60;56.90
49379;DHT22;35254;47.990;-1.608;2023-02-12T17:10:42;14.50;56.80
49379;DHT22;35254;47.990;-1.608;2023-02-12T17:13:09;14.60;56.80
49379;DHT22;35254;47.990;-1.608;2023-02-12T17:15:55;14.60;56.90
49379;DHT22;35254;47.990;-1.608;2023-02-12T17:18:21;14.50;57.00
49379;DHT22;35254;47.990;-1.608;2023-02-12T17:21:00;14.50;57.10
49379;DHT22;35254;47.990;-1.608;2023-02-12T17:23:26;14.60;57.10
49379;DHT22;35254;47.990;-1.608;2023-02-12T17:25:53;14.60;57.00
49379;DHT22;35254;47.990;-1.608;2023-02-12T17:28:18;14.50;57.00
49379;DHT22;35254;47.990;-1.608;2023-02-12T17:30:45;14.50;57.10
49379;DHT22;35254;47.990;-1.608;2023-02-12T17:33:11;14.50;57.10
49379;DHT22;35254;47.990;-1.608;2023-02-12T17:35:39;14.50;57.10
49379;DHT22;35254;47.990;-1.608;2023-02-12T17:38:05;14.60;57.10
49379;DHT22;35254;47.990;-1.608;2023-02-12T17:40:31;14.60;57.10
49379;DHT22;35254;47.990;-1.608;2023-02-12T17:42:58;14.60;57.10
49379;DHT22;35254;47.990;-1.608;2023-02-12T17:45:24;14.60;57.20
49379;DHT22;35254;47.990;-1.608;2023-02-12T17:47:49;14.50;57.30
49379;DHT22;35254;47.990;-1.608;2023-02-12T17:50:15;14.60;57.40
49379;DHT22;35254;47.990;-1.608;2023-02-12T17:52:42;14.50;57.40
49379;DHT22;35254;47.990;-1.608;2023-02-12T17:55:08;14.50;57.40
49379;DHT22;35254;47.990;-1.608;2023-02-12T17:57:36;14.50;57.40
49379;DHT22;35254;47.990;-1.608;2023-02-12T18:00:03;14.50;57.50
49379;DHT22;35254;47.990;-1.608;2023-02-12T18:02:29;14.50;57.50
49379;DHT22;35254;47.990;-1.608;2023-02-12T18:04:54;14.50;57.50
49379;DHT22;35254;47.990;-1.608;2023-02-12T18:07:20;14.50;57.60
49379;DHT22;35254;47.990;-1.608;2023-02-12T18:09:45;14.50;57.60
49379;DHT22;35254;47.990;-1.608;2023-02-12T18:12:11;14.50;57.70
49379;DHT22;35254;47.990;-1.608;2023-02-12T18:14:37;14.50;57.70
49379;DHT22;35254;47.990;-1.608;2023-02-12T18:17:03;14.50;57.80
49379;DHT22;35254;47.990;-1.608;2023-02-12T18:19:28;14.50;57.80
49379;DHT22;35254;47.990;-1.608;2023-02-12T18:21:54;14.50;57.80